createdAt,value
2023-05-20T00:04:04.180Z,14.62
2023-05-20T00:09:05.818Z,14.61
2023-05-20T00:14:07.321Z,14.63
2023-05-20T00:19:08.820Z,14.54
2023-05-20T00:24:10.522Z,14.68
2023-05-20T00:29:12.243Z,14.61
2023-05-20T00:34:13.798Z,14.68
2023-05-20T00:39:15.420Z,14.59
2023-05-20T00:44:18.796Z,14.62
2023-05-20T00:49:20.988Z,14.62
2023-05-20T00:54:22.574Z,14.58
2023-05-20T00:59:25.031Z,14.40
2023-05-20T01:04:27.020Z,14.58
2023-05-20T01:09:31.263Z,14.51
2023-05-20T01:14:38.098Z,14.39
2023-05-20T01:19:44.211Z,14.50
2023-05-20T01:24:48.587Z,14.57
2023-05-20T01:29:52.122Z,14.42
2023-05-20T01:34:55.118Z,14.46
2023-05-20T01:39:57.266Z,14.50
2023-05-20T01:44:59.501Z,14.22
2023-05-20T01:50:01.287Z,14.14
2023-05-20T01:55:02.890Z,14.43
2023-05-20T02:00:06.259Z,14.21
2023-05-20T02:05:08.234Z,14.28
2023-05-20T02:10:10.513Z,14.03
2023-05-20T02:15:12.289Z,14.34
2023-05-20T02:20:14.077Z,14.09
2023-05-20T02:25:16.127Z,14.33
2023-05-20T02:30:18.138Z,14.29
2023-05-20T02:35:19.737Z,14.38
2023-05-20T02:40:21.352Z,14.27
2023-05-20T02:45:22.928Z,14.32
2023-05-20T02:50:24.669Z,14.18
2023-05-20T02:55:26.239Z,14.33
2023-05-20T03:00:30.550Z,14.31
2023-05-20T03:05:32.814Z,14.26
2023-05-20T03:10:34.758Z,14.33
2023-05-20T03:15:36.944Z,14.12
2023-05-20T03:20:38.726Z,14.14
2023-05-20T03:25:40.717Z,14.25
2023-05-20T03:30:42.281Z,14.28
2023-05-20T03:35:43.904Z,14.31
2023-05-20T03:40:45.481Z,14.05
2023-05-20T03:45:47.068Z,14.10
2023-05-20T03:50:49.755Z,14.24
2023-05-20T03:55:51.334Z,14.28
2023-05-20T04:00:52.900Z,14.25
2023-05-20T04:05:54.476Z,14.33
2023-05-20T04:10:57.482Z,14.29
2023-05-20T04:16:01.542Z,14.33
2023-05-20T04:21:03.185Z,14.36
2023-05-20T04:26:04.777Z,14.31
2023-05-20T04:31:06.600Z,14.27
2023-05-20T04:36:12.153Z,14.21
2023-05-20T04:41:14.071Z,14.25
2023-05-20T04:46:16.595Z,14.36
2023-05-20T04:51:18.202Z,14.34
2023-05-20T04:56:19.775Z,14.29
2023-05-20T05:01:21.431Z,14.29
2023-05-20T05:06:23.013Z,14.38
2023-05-20T05:11:24.606Z,14.39
2023-05-20T05:16:26.422Z,14.40
2023-05-20T05:21:28.070Z,14.37
2023-05-20T05:26:29.704Z,14.34
2023-05-20T05:31:31.325Z,14.30
2023-05-20T05:36:33.964Z,14.52
2023-05-20T05:41:35.892Z,14.52
2023-05-20T05:46:37.491Z,14.45
2023-05-20T05:51:39.254Z,14.58
2023-05-20T05:56:40.965Z,14.64
2023-05-20T06:01:42.604Z,14.70
2023-05-20T06:06:44.203Z,14.79
2023-05-20T06:11:45.981Z,14.72
2023-05-20T06:16:47.616Z,14.70
2023-05-20T06:21:49.250Z,14.65
2023-05-20T06:26:51.171Z,14.83
2023-05-20T06:31:52.740Z,15.04
2023-05-20T06:36:54.361Z,15.05
2023-05-20T06:41:56.002Z,15.11
2023-05-20T06:46:57.586Z,15.22
2023-05-20T06:51:59.166Z,15.20
2023-05-20T06:57:00.921Z,15.29
2023-05-20T07:02:03.097Z,15.50
2023-05-20T07:07:04.866Z,15.45
2023-05-20T07:12:06.909Z,15.44
2023-05-20T07:17:08.516Z,15.45
2023-05-20T07:22:10.078Z,15.45
2023-05-20T07:27:11.711Z,15.54
2023-05-20T07:32:13.317Z,15.67
2023-05-20T07:37:16.021Z,15.67
2023-05-20T07:42:17.644Z,15.70
2023-05-20T07:47:19.313Z,15.90
2023-05-20T07:52:20.901Z,15.95
2023-05-20T07:57:22.546Z,16.04
2023-05-20T08:02:24.182Z,16.02
2023-05-20T08:07:25.898Z,16.10
2023-05-20T08:12:27.452Z,16.16
2023-05-20T08:17:29.070Z,16.20
2023-05-20T08:22:31.432Z,16.20
2023-05-20T08:27:33.008Z,16.35
2023-05-20T08:32:34.581Z,16.51
2023-05-20T08:37:36.292Z,16.74
2023-05-20T08:42:41.809Z,16.53
2023-05-20T08:47:44.409Z,16.85
2023-05-20T08:52:48.293Z,16.87
2023-05-20T08:57:56.021Z,16.92
2023-05-20T09:03:01.155Z,16.95
2023-05-20T09:08:12.359Z,17.01
2023-05-20T09:13:13.904Z,16.91
2023-05-20T09:18:15.642Z,16.83
2023-05-20T09:23:19.542Z,17.06
2023-05-20T09:28:26.844Z,17.06
2023-05-20T09:33:32.396Z,17.40
2023-05-20T09:38:39.111Z,17.57
2023-05-20T09:43:41.206Z,17.65
2023-05-20T09:48:43.394Z,17.87
2023-05-20T09:53:45.151Z,17.81
2023-05-20T09:58:49.754Z,17.73
2023-05-20T10:03:53.330Z,17.47
2023-05-20T10:09:01.087Z,17.64
2023-05-20T10:14:36.553Z,17.53
2023-05-20T10:19:38.285Z,18.40
2023-05-20T10:24:42.977Z,18.50
2023-05-20T10:29:52.408Z,18.99
2023-05-20T10:35:00.181Z,18.31
2023-05-20T10:40:21.420Z,18.46
2023-05-20T10:45:28.047Z,18.51
2023-05-20T10:50:37.610Z,18.20
2023-05-20T10:55:41.596Z,18.17
2023-05-20T11:00:43.667Z,18.06
2023-05-20T11:05:48.891Z,18.88
2023-05-20T11:10:50.620Z,18.55
2023-05-20T11:15:52.500Z,19.08
2023-05-20T11:20:54.483Z,19.00
2023-05-20T11:25:57.449Z,18.87
2023-05-20T11:31:00.041Z,18.75
2023-05-20T11:36:03.389Z,19.02
2023-05-20T11:41:07.426Z,19.15
2023-05-20T11:46:09.954Z,19.15
2023-05-20T11:51:11.523Z,19.98
2023-05-20T11:56:14.606Z,20.35
2023-05-20T12:01:22.162Z,19.70
2023-05-20T12:06:24.586Z,19.73
2023-05-20T12:11:26.148Z,20.12
2023-05-20T12:16:27.972Z,20.25
2023-05-20T12:21:30.158Z,20.70
2023-05-20T12:26:35.234Z,20.98
2023-05-20T12:31:37.408Z,21.10
2023-05-20T12:36:39.077Z,20.96
2023-05-20T12:41:42.867Z,21.34
2023-05-20T12:46:44.636Z,21.36
2023-05-20T12:51:46.245Z,21.88
2023-05-20T12:56:48.466Z,21.25
2023-05-20T13:01:50.470Z,21.55
2023-05-20T13:06:52.205Z,21.33
2023-05-20T13:11:53.825Z,21.02
2023-05-20T13:16:55.647Z,20.93
2023-05-20T13:21:57.342Z,20.89
2023-05-20T13:26:59.066Z,20.99
2023-05-20T13:32:02.107Z,21.08
2023-05-20T13:37:03.845Z,20.99
2023-05-20T13:42:05.659Z,21.40
2023-05-20T13:47:07.484Z,21.51
2023-05-20T13:52:09.167Z,21.17
2023-05-20T13:57:10.976Z,20.98
2023-05-20T14:02:12.744Z,21.07
2023-05-20T14:07:14.398Z,20.66
2023-05-20T14:12:16.036Z,20.21
2023-05-20T14:17:17.885Z,20.27
2023-05-20T14:22:20.016Z,20.32
2023-05-20T14:27:22.840Z,20.38
2023-05-20T14:32:24.711Z,19.88
2023-05-20T14:37:28.028Z,20.72
2023-05-20T14:42:29.640Z,20.84
2023-05-20T14:47:31.268Z,20.78
2023-05-20T14:52:32.961Z,20.66
2023-05-20T14:57:34.575Z,20.64
2023-05-20T15:02:36.383Z,20.69
2023-05-20T15:07:38.388Z,20.70
2023-05-20T15:12:40.366Z,20.30
2023-05-20T15:17:41.990Z,20.11
2023-05-20T15:22:47.829Z,20.11
2023-05-20T15:27:50.149Z,20.20
2023-05-20T15:32:51.797Z,20.30
2023-05-20T15:37:53.472Z,20.28
2023-05-20T15:42:55.120Z,20.03
2023-05-20T15:47:56.924Z,19.95
2023-05-20T15:52:58.636Z,19.83
2023-05-20T15:58:00.284Z,19.81
2023-05-20T16:03:02.093Z,19.69
2023-05-20T16:08:03.778Z,19.62
2023-05-20T16:13:05.479Z,19.22
2023-05-20T16:18:07.275Z,19.12
2023-05-20T16:23:08.899Z,18.88
2023-05-20T16:28:10.481Z,18.53
2023-05-20T16:33:13.407Z,18.13
2023-05-20T16:38:15.093Z,18.12
2023-05-20T16:43:16.671Z,17.97
2023-05-20T16:48:18.264Z,18.08
2023-05-20T16:53:19.949Z,18.14
2023-05-20T16:58:21.599Z,17.86
2023-05-20T17:03:23.210Z,17.60
2023-05-20T17:08:24.807Z,17.56
2023-05-20T17:13:26.756Z,17.90
2023-05-20T17:18:28.474Z,17.80
2023-05-20T17:23:30.227Z,17.78
2023-05-20T17:28:32.012Z,17.64
2023-05-20T17:33:34.139Z,17.39
2023-05-20T17:38:36.475Z,17.65
2023-05-20T17:43:38.520Z,17.63
2023-05-20T17:48:45.429Z,17.50
2023-05-20T17:53:47.609Z,17.38
2023-05-20T17:58:50.010Z,17.17
2023-05-20T18:03:52.416Z,17.34
2023-05-20T18:08:56.501Z,17.53
2023-05-20T18:14:00.041Z,17.38
2023-05-20T18:19:03.396Z,17.32
2023-05-20T18:24:06.326Z,17.52
2023-05-20T18:29:08.635Z,16.98
2023-05-20T18:34:11.262Z,16.88
2023-05-20T18:39:14.794Z,17.05
2023-05-20T18:44:18.588Z,16.92
2023-05-20T18:49:21.062Z,16.97
2023-05-20T18:54:23.382Z,16.93
2023-05-20T18:59:25.772Z,16.72
2023-05-20T19:04:28.142Z,16.36
2023-05-20T19:09:30.500Z,16.79
2023-05-20T19:14:32.880Z,16.96
2023-05-20T19:19:35.230Z,16.64
2023-05-20T19:24:37.800Z,17.11
2023-05-20T19:29:40.171Z,16.96
2023-05-20T19:34:42.622Z,17.08
2023-05-20T19:39:45.002Z,17.00
2023-05-20T19:44:47.397Z,16.88
2023-05-20T19:49:49.852Z,16.72
2023-05-20T19:54:52.231Z,16.75
2023-05-20T19:59:54.625Z,16.63
2023-05-20T20:04:57.051Z,16.48
2023-05-20T20:09:59.527Z,16.83
2023-05-20T20:15:01.895Z,16.80
2023-05-20T20:20:10.785Z,16.73
2023-05-20T20:25:14.593Z,16.81
2023-05-20T20:30:18.159Z,16.75
2023-05-20T20:35:23.218Z,16.71
2023-05-20T20:40:26.225Z,16.60
2023-05-20T20:45:28.402Z,16.72
2023-05-20T20:50:31.599Z,16.40
2023-05-20T20:55:34.721Z,16.63
2023-05-20T21:00:37.356Z,16.65
2023-05-20T21:05:39.205Z,16.61
2023-05-20T21:10:41.133Z,16.64
2023-05-20T21:15:43.101Z,16.69
2023-05-20T21:20:44.650Z,16.56
2023-05-20T21:25:46.514Z,16.61
2023-05-20T21:30:48.086Z,16.71
2023-05-20T21:35:49.707Z,16.69
2023-05-20T21:40:51.310Z,16.33
2023-05-20T21:45:52.959Z,16.30
2023-05-20T21:50:54.556Z,16.25
2023-05-20T21:55:56.307Z,15.90
2023-05-20T22:00:58.062Z,16.11
2023-05-20T22:05:59.611Z,16.29
2023-05-20T22:11:05.481Z,16.31
2023-05-20T22:16:07.991Z,16.31
2023-05-20T22:21:09.603Z,16.06
2023-05-20T22:26:11.186Z,16.18
2023-05-20T22:31:13.419Z,16.18
2023-05-20T22:36:14.990Z,16.13
2023-05-20T22:41:16.581Z,15.88
2023-05-20T22:46:18.189Z,16.00
2023-05-20T22:51:21.394Z,15.94
2023-05-20T22:56:23.777Z,15.72
2023-05-20T23:01:25.339Z,16.10
2023-05-20T23:06:26.934Z,16.19
2023-05-20T23:11:28.505Z,15.95
2023-05-20T23:16:30.524Z,15.90
2023-05-20T23:21:32.154Z,15.91
2023-05-20T23:26:34.618Z,15.81
2023-05-20T23:31:36.772Z,15.88
2023-05-20T23:36:41.962Z,15.99
2023-05-20T23:41:43.689Z,15.80
2023-05-20T23:46:45.346Z,15.87
2023-05-20T23:51:46.944Z,15.93
2023-05-20T23:56:49.416Z,15.79
